Mc Call Municipal Airport Mc Call US
ICAO: KMYL
IATA: MYL
Category: Medium
Scheduled Services: No

Elevation: 5024 ft
TransAlt. 18000 ft.

Airport Communications:
ASOS:119.925
SALT LAKE CITY CNTR:128.05
BOISE RDO:122.35
CTAF/UNICOM:122.8

KMYL Zoom In..

If you have problems with the map follow the link
https://www.worldairports.se/pages/airport.php?
ICAO=KMYL

Runways:

(A) RW 16 length 6108 ft width 75 ft
---- / hdg 162

(B) RW 34 length 6108 ft width 75 ft
---- / hdg 342

Location; KMYL
Day. 27 / Time. 00.01 Zulu
* Altimeter: 29.97
* Temperature: 01° c. 33.8°f.
* Wind from: 290° Speed 05 kn.
Dewpoint: -01° c.
Visibility: 1 m.
Clouds: Scattered 400 ft.
Clouds: Scattered 1100 ft.
Clouds: Overcast 1500 ft.
Conditions: Light Snow.Conditions: Mist.

KMYL 270001Z AUTO 29005KT 1 1/4SM -SN BR SCT004 SCT011 OVC015 01/M01 A2997 RMK AO2 P0001 T00061011


Wind From 290°
Speed 05 kn.

 
 
jpsmedia worldairports.se 2020   terms of use